createdAt,value
2017-10-04T00:00:13.272Z,78.43
2017-10-04T00:01:23.603Z,78.34
2017-10-04T00:02:33.668Z,78.24
2017-10-04T00:03:43.992Z,78.63
2017-10-04T00:04:54.385Z,78.72
2017-10-04T00:06:04.728Z,78.72
2017-10-04T00:07:15.081Z,78.72
2017-10-04T00:08:25.106Z,78.72
2017-10-04T00:09:35.433Z,78.81
2017-10-04T00:10:46.668Z,78.63
2017-10-04T00:11:56.364Z,78.34
2017-10-04T00:13:06.382Z,78.72
2017-10-04T00:14:16.412Z,78.34
2017-10-04T00:15:26.744Z,78.43
2017-10-04T00:16:37.073Z,78.34
2017-10-04T00:17:47.406Z,78.49
2017-10-04T00:18:57.413Z,78.63
2017-10-04T00:20:07.441Z,78.63
2017-10-04T00:21:17.763Z,78.53
2017-10-04T00:22:28.153Z,78.53
2017-10-04T00:23:38.504Z,78.81
2017-10-04T00:24:48.535Z,78.53
2017-10-04T00:25:58.878Z,78.53
2017-10-04T00:27:08.909Z,78.43
2017-10-04T00:28:19.290Z,78.43
2017-10-04T00:29:29.322Z,78.53
2017-10-04T00:30:39.344Z,78.43
2017-10-04T00:31:49.681Z,78.53
2017-10-04T00:33:00.030Z,78.53
2017-10-04T00:34:10.380Z,78.63
2017-10-04T00:35:20.721Z,78.43
2017-10-04T00:36:30.730Z,78.63
2017-10-04T00:37:41.071Z,78.63
2017-10-04T00:38:51.406Z,78.63
2017-10-04T00:40:01.478Z,78.53
2017-10-04T00:41:11.810Z,78.43
2017-10-04T00:42:22.157Z,78.34
2017-10-04T00:43:32.172Z,78.81
2017-10-04T00:44:42.194Z,78.43
2017-10-04T00:45:52.539Z,78.53
2017-10-04T00:47:02.873Z,78.39
2017-10-04T00:48:12.888Z,78.91
2017-10-04T00:49:23.226Z,78.87
2017-10-04T00:50:33.549Z,78.68
2017-10-04T00:51:43.941Z,78.78
2017-10-04T00:52:53.958Z,78.78
2017-10-04T00:54:03.970Z,78.39
2017-10-04T00:55:14.302Z,78.58
2017-10-04T00:56:23.700Z,78.58
2017-10-04T00:57:34.172Z,78.68
2017-10-04T00:58:44.514Z,78.39
2017-10-04T00:59:54.867Z,78.3
2017-10-04T01:01:05.215Z,78.39
2017-10-04T01:02:14.930Z,78.39
2017-10-04T01:03:25.275Z,78.39
2017-10-04T01:04:35.615Z,78.3
2017-10-04T01:05:45.317Z,78.3
2017-10-04T01:06:55.659Z,78.58
2017-10-04T01:08:05.681Z,78.49
2017-10-04T01:09:16.069Z,78.49
2017-10-04T01:10:26.419Z,78.49
2017-10-04T01:11:36.747Z,78.58
2017-10-04T01:12:47.093Z,78.49
2017-10-04T01:13:57.425Z,78.58
2017-10-04T01:15:07.769Z,78.49
2017-10-04T01:16:18.101Z,78.58
2017-10-04T01:17:28.450Z,78.39
2017-10-04T01:18:38.791Z,78.39
2017-10-04T01:19:49.118Z,78.68
2017-10-04T01:20:59.506Z,78.49
2017-10-04T01:22:09.842Z,78.58
2017-10-04T01:23:20.214Z,78.39
2017-10-04T01:24:30.554Z,78.3
2017-10-04T01:25:40.873Z,78.39
2017-10-04T01:26:50.893Z,78.58
2017-10-04T01:28:01.237Z,78.58
2017-10-04T01:29:11.583Z,78.49
2017-10-04T01:30:21.604Z,78.39
2017-10-04T01:31:31.627Z,78.49
2017-10-04T01:32:41.979Z,78.58
2017-10-04T01:33:52.323Z,78.39
2017-10-04T01:35:02.357Z,78.3
2017-10-04T01:36:12.715Z,78.58
2017-10-04T01:37:22.750Z,78.39
2017-10-04T01:38:32.761Z,78.49
2017-10-04T01:39:43.104Z,78.49
2017-10-04T01:40:53.443Z,78.49
2017-10-04T01:42:03.789Z,78.49
2017-10-04T01:43:14.128Z,78.49
2017-10-04T01:44:23.885Z,78.3
2017-10-04T01:45:34.287Z,78.58
2017-10-04T01:46:44.636Z,78.58
2017-10-04T01:47:54.975Z,78.49
2017-10-04T01:49:05.325Z,78.58
2017-10-04T01:50:15.070Z,78.39
2017-10-04T01:51:25.419Z,78.58
2017-10-04T01:52:35.749Z,78.58
2017-10-04T01:53:45.778Z,78.68
2017-10-04T01:54:56.120Z,78.68
2017-10-04T01:56:06.458Z,78.49
2017-10-04T01:57:16.797Z,78.49
2017-10-04T01:58:26.813Z,78.58
2017-10-04T01:59:37.138Z,78.49
2017-10-04T02:00:47.476Z,78.49
2017-10-04T02:01:57.804Z,78.68
2017-10-04T02:03:07.836Z,78.58
2017-10-04T02:04:18.176Z,78.58
2017-10-04T02:05:28.209Z,78.49
2017-10-04T02:06:38.540Z,78.49
2017-10-04T02:07:48.876Z,78.58
2017-10-04T02:08:59.204Z,78.78
2017-10-04T02:10:09.669Z,78.68
2017-10-04T02:11:19.698Z,78.68
2017-10-04T02:12:30.040Z,78.58
2017-10-04T02:13:40.400Z,78.58
2017-10-04T02:14:50.834Z,78.49
2017-10-04T02:16:01.177Z,78.58
2017-10-04T02:17:11.542Z,78.58
2017-10-04T02:18:21.889Z,78.58
2017-10-04T02:19:32.213Z,78.68
2017-10-04T02:20:42.551Z,78.58
2017-10-04T02:21:52.581Z,78.97
2017-10-04T02:23:02.919Z,78.58
2017-10-04T02:24:13.248Z,78.74
2017-10-04T02:25:23.264Z,78.2
2017-10-04T02:26:33.288Z,78.87
2017-10-04T02:27:43.633Z,77.72
2017-10-04T02:28:53.960Z,78.11
2017-10-04T02:30:04.316Z,77.63
2017-10-04T02:31:14.017Z,77.72
2017-10-04T02:32:24.406Z,78.11
2017-10-04T02:33:34.739Z,78.11
2017-10-04T02:34:44.777Z,77.82
2017-10-04T02:35:55.114Z,78.2
2017-10-04T02:37:05.441Z,77.92
2017-10-04T02:38:16.198Z,78.11
2017-10-04T02:39:27.444Z,78.16
2017-10-04T02:40:57.646Z,78.11
2017-10-04T02:42:07.973Z,77.97
2017-10-04T02:43:17.730Z,78.16
2017-10-04T02:44:27.753Z,78.07
2017-10-04T02:45:37.778Z,78.16
2017-10-04T02:46:47.800Z,78.07
2017-10-04T02:47:58.137Z,77.97
2017-10-04T02:49:09.570Z,78.16
2017-10-04T02:50:19.913Z,78.07
2017-10-04T02:51:30.240Z,78.26
2017-10-04T02:52:40.565Z,77.69
2017-10-04T02:53:50.906Z,77.97
2017-10-04T02:55:01.302Z,77.78
2017-10-04T02:56:11.314Z,77.87
2017-10-04T02:57:21.322Z,77.97
2017-10-04T02:58:31.688Z,77.87
2017-10-04T02:59:42.024Z,77.78
2017-10-04T03:00:52.357Z,77.87
2017-10-04T03:02:02.692Z,77.97
2017-10-04T03:33:38.610Z,75.55
2017-10-04T03:34:48.942Z,76.5
2017-10-04T03:35:59.257Z,77.26
2017-10-04T03:37:08.951Z,77.93
2017-10-04T03:38:18.959Z,78.41
2017-10-04T03:39:29.338Z,78.31
2017-10-04T03:40:39.657Z,78.41
2017-10-04T03:41:49.672Z,78.06
2017-10-04T03:43:00.009Z,78.73
2017-10-04T03:44:10.012Z,78.83
2017-10-04T03:45:20.023Z,78.83
2017-10-04T03:46:30.361Z,79.11
2017-10-04T03:47:40.696Z,78.67
2017-10-04T03:48:50.710Z,78.86
2017-10-04T03:50:01.052Z,78.96
2017-10-04T03:51:11.391Z,78.67
2017-10-04T03:52:21.719Z,78.77
2017-10-04T03:53:32.055Z,78.43
2017-10-04T03:54:42.062Z,78.52
2017-10-04T03:55:51.765Z,78.72
2017-10-04T03:57:02.150Z,78.62
2017-10-04T03:58:12.166Z,78.43
2017-10-04T03:59:22.734Z,78.62
2017-10-04T04:00:33.072Z,78.28
2017-10-04T04:01:43.403Z,78.37
2017-10-04T04:02:53.788Z,78.28
2017-10-04T04:04:04.166Z,78.56
2017-10-04T04:05:14.502Z,78.37
2017-10-04T04:06:24.824Z,78.56
2017-10-04T04:07:35.141Z,78.85
2017-10-04T04:08:45.214Z,78.56
2017-10-04T04:09:55.551Z,77.84
2017-10-04T04:11:05.876Z,78.03
2017-10-04T04:12:15.580Z,77.84
2017-10-04T04:13:25.607Z,77.84
2017-10-04T04:14:35.939Z,78.13
2017-10-04T04:15:46.275Z,77.74
2017-10-04T04:16:55.982Z,77.84
2017-10-04T04:18:06.312Z,78.03
2017-10-04T04:19:16.344Z,78.22
2017-10-04T04:20:26.686Z,78.22
2017-10-04T04:21:37.023Z,77.84
2017-10-04T04:22:47.369Z,78.13
2017-10-04T04:23:57.388Z,78.03
2017-10-04T04:25:07.738Z,78.22
2017-10-04T04:26:18.136Z,78.03
2017-10-04T04:27:28.175Z,78.03
2017-10-04T04:28:38.493Z,78.31
2017-10-04T04:29:48.830Z,78.03
2017-10-04T04:30:59.177Z,78.13
2017-10-04T04:32:09.508Z,78.13
2017-10-04T04:33:19.531Z,77.84
2017-10-04T04:34:29.887Z,78.03
2017-10-04T04:35:40.219Z,77.74
2017-10-04T04:36:50.226Z,77.74
2017-10-04T04:38:00.553Z,77.74
2017-10-04T04:39:10.245Z,77.78
2017-10-04T04:40:20.602Z,78.07
2017-10-04T04:41:30.678Z,78.16
2017-10-04T04:42:41.008Z,79.02
2017-10-04T04:43:51.426Z,78.16
2017-10-04T04:45:01.773Z,78.89
2017-10-04T04:46:11.789Z,77.59
2017-10-04T04:47:22.122Z,78.55
2017-10-04T04:48:32.460Z,78.07
2017-10-04T04:49:42.529Z,77.87
2017-10-04T04:50:52.870Z,77.78
2017-10-04T04:52:03.498Z,78.16
2017-10-04T04:53:13.832Z,77.97
2017-10-04T04:54:24.181Z,77.87
2017-10-04T04:55:34.248Z,77.87
2017-10-04T04:56:44.262Z,78.16
2017-10-04T04:57:54.593Z,78.07
2017-10-04T04:59:04.924Z,77.97
2017-10-04T05:00:15.239Z,78.07
2017-10-04T05:01:24.996Z,78.45
2017-10-04T05:02:35.879Z,78.16
2017-10-04T05:03:46.212Z,78.16
2017-10-04T05:04:56.537Z,78.26
2017-10-04T05:06:06.915Z,78.36
2017-10-04T05:07:17.598Z,78.16
2017-10-04T05:08:27.933Z,78.36
2017-10-04T05:09:38.252Z,78.26
2017-10-04T05:10:48.597Z,78.16
2017-10-04T05:11:58.950Z,78.07
2017-10-04T05:13:08.987Z,78.26
2017-10-04T05:14:19.327Z,78.36
2017-10-04T05:15:29.664Z,78.01
2017-10-04T05:16:39.982Z,77.72
2017-10-04T05:17:50.018Z,77.92
2017-10-04T05:18:59.764Z,77.92
2017-10-04T05:20:09.800Z,77.92
2017-10-04T05:21:19.833Z,77.72
2017-10-04T05:22:30.156Z,77.63
2017-10-04T05:23:40.497Z,77.82
2017-10-04T05:24:50.827Z,77.44
2017-10-04T05:26:01.170Z,77.72
2017-10-04T05:27:11.186Z,77.53
2017-10-04T05:28:21.195Z,77.25
2017-10-04T05:29:31.763Z,77.15
2017-10-04T05:30:42.158Z,77.06
2017-10-04T05:31:52.199Z,77.34
2017-10-04T05:33:02.545Z,77.34
2017-10-04T05:34:12.572Z,77.28
2017-10-04T05:35:22.601Z,77.28
2017-10-04T05:36:32.945Z,77.38
2017-10-04T05:37:43.286Z,77.48
2017-10-04T05:38:53.304Z,77.67
2017-10-04T05:40:02.997Z,77.28
2017-10-04T05:41:13.018Z,77.57
2017-10-04T05:42:22.724Z,77.48
2017-10-04T05:43:32.745Z,77.48
2017-10-04T05:44:43.085Z,77.23
2017-10-04T05:45:53.122Z,77.13
2017-10-04T05:47:03.137Z,76.75
2017-10-04T05:48:13.472Z,76.94
2017-10-04T05:49:23.833Z,76.98
2017-10-04T05:50:33.863Z,76.69
2017-10-04T05:51:44.198Z,76.69
2017-10-04T05:52:54.526Z,76.98
2017-10-04T05:54:04.557Z,76.98
2017-10-04T05:55:14.891Z,77.26
2017-10-04T05:56:25.216Z,76.98
2017-10-04T05:57:35.279Z,77.02
2017-10-04T05:58:45.613Z,77.08
2017-10-04T05:59:55.942Z,77.4
2017-10-04T06:01:05.958Z,77.02
2017-10-04T06:02:16.304Z,77.02
2017-10-04T06:03:26.371Z,77.11
2017-10-04T06:04:36.398Z,77.02
2017-10-04T06:05:46.744Z,77.11
2017-10-04T06:06:57.067Z,77.11
2017-10-04T06:08:06.794Z,77.21
2017-10-04T06:09:17.185Z,77.31
2017-10-04T06:10:27.526Z,77.31
2017-10-04T06:11:37.853Z,77.15
2017-10-04T06:12:47.870Z,77.44
2017-10-04T06:13:58.206Z,77.34
2017-10-04T06:15:08.594Z,77.34
2017-10-04T06:16:18.924Z,77.63
2017-10-04T06:17:29.267Z,77.53
2017-10-04T06:18:38.969Z,77.53
2017-10-04T06:19:49.023Z,77.92
2017-10-04T06:20:59.384Z,77.82
2017-10-04T06:22:09.086Z,77.63
2017-10-04T06:23:19.423Z,77.44
2017-10-04T06:24:29.789Z,77.44
2017-10-04T06:25:40.121Z,77.63
2017-10-04T06:26:50.517Z,77.44
2017-10-04T06:28:00.858Z,77.34
2017-10-04T06:29:11.205Z,77.53
2017-10-04T06:30:20.928Z,77.73
2017-10-04T06:31:30.941Z,77.53
2017-10-04T06:32:41.331Z,77.63
2017-10-04T06:33:51.348Z,77.82
2017-10-04T06:35:01.388Z,77.63
2017-10-04T06:36:11.727Z,77.58
2017-10-04T06:37:22.071Z,77.86
2017-10-04T06:38:32.466Z,77.76
2017-10-04T06:39:42.812Z,77.67
2017-10-04T06:40:53.162Z,77.67
2017-10-04T06:42:03.507Z,77.67
2017-10-04T06:43:13.846Z,77.76
2017-10-04T06:44:24.184Z,77.23
2017-10-04T06:45:34.185Z,77.23
2017-10-04T06:46:44.535Z,77.04
2017-10-04T06:47:54.610Z,77.23
2017-10-04T06:49:04.954Z,77.04
2017-10-04T06:50:15.019Z,76.94
2017-10-04T06:51:25.035Z,76.94
2017-10-04T06:52:35.058Z,76.69
2017-10-04T06:53:45.412Z,76.69
2017-10-04T06:54:55.762Z,76.69
2017-10-04T06:56:06.145Z,76.79
2017-10-04T06:57:16.497Z,76.98
2017-10-04T06:58:26.836Z,77.26
2017-10-04T06:59:36.851Z,77.11
2017-10-04T07:00:47.179Z,77.11
2017-10-04T07:01:57.204Z,77.11
2017-10-04T07:03:07.224Z,77.17
2017-10-04T07:04:17.562Z,77.75
2017-10-04T07:05:27.919Z,77.75
2017-10-04T07:06:38.247Z,77.75
2017-10-04T07:07:48.645Z,77.84
2017-10-04T07:08:58.980Z,77.88
2017-10-04T07:10:09.322Z,77.69
2017-10-04T07:11:19.673Z,77.69
2017-10-04T07:12:30.002Z,77.59
2017-10-04T07:13:40.419Z,77.4
2017-10-04T07:14:50.770Z,77.4
2017-10-04T07:16:00.813Z,77.4
2017-10-04T07:17:11.167Z,77.59
2017-10-04T07:18:21.959Z,77.59
2017-10-04T07:19:32.040Z,77.4
2017-10-04T07:20:42.383Z,77.4
2017-10-04T07:21:52.740Z,77.4
2017-10-04T07:23:03.096Z,77.4
2017-10-04T07:24:13.442Z,77.31
2017-10-04T07:25:23.835Z,77.4
2017-10-04T07:26:33.863Z,77.59
2017-10-04T07:27:43.889Z,77.31
2017-10-04T07:28:54.229Z,77.5
2017-10-04T07:30:04.557Z,77.31
2017-10-04T07:31:14.924Z,77.11
2017-10-04T07:32:25.267Z,77.15
2017-10-04T07:33:35.311Z,77.15
2017-10-04T07:34:45.333Z,77.34
2017-10-04T07:35:55.680Z,77.06
2017-10-04T07:37:06.041Z,76.96
2017-10-04T07:38:16.412Z,76.86
2017-10-04T07:39:26.755Z,77.09
2017-10-04T07:40:37.108Z,76.42
2017-10-04T07:41:47.465Z,76.61
2017-10-04T07:42:57.235Z,76.42
2017-10-04T07:44:06.938Z,76.32
2017-10-04T07:45:17.296Z,76.23
2017-10-04T07:46:27.633Z,76.42
2017-10-04T07:47:37.988Z,76.42
2017-10-04T07:48:47.734Z,76.81
2017-10-04T07:49:57.758Z,76.84
2017-10-04T07:51:08.105Z,76.65
2017-10-04T07:52:18.426Z,76.17
2017-10-04T07:53:29.598Z,76.46
2017-10-04T07:54:39.982Z,76.46
2017-10-04T07:55:49.990Z,76.84
2017-10-04T07:57:00.346Z,76.59
2017-10-04T07:58:10.686Z,76.11
2017-10-04T07:59:21.015Z,76.4
2017-10-04T08:00:30.772Z,76.5
2017-10-04T08:01:40.785Z,76.78
2017-10-04T08:02:51.112Z,76.59
2017-10-04T08:04:01.159Z,76.69
2017-10-04T08:05:11.172Z,75.92
2017-10-04T08:06:21.533Z,75.96
2017-10-04T08:07:31.558Z,75.61
2017-10-04T08:08:41.555Z,75.32
2017-10-04T08:09:51.569Z,75.65
2017-10-04T08:11:01.912Z,75.74
2017-10-04T08:12:12.292Z,75.55
2017-10-04T08:13:22.627Z,75.65
2017-10-04T08:14:32.990Z,76.13
2017-10-04T08:15:43.332Z,76.18
2017-10-04T08:16:53.671Z,76.57
2017-10-04T08:18:03.699Z,76.96
2017-10-04T08:19:13.738Z,77.15
2017-10-04T08:20:23.427Z,77.63
2017-10-04T08:21:33.459Z,77.59
2017-10-04T08:22:43.815Z,77.5
2017-10-04T08:23:54.222Z,77.78
2017-10-04T08:25:04.600Z,77.01
2017-10-04T08:26:14.949Z,76.18
2017-10-04T08:27:25.302Z,75.9
2017-10-04T08:28:35.329Z,76.03
2017-10-04T08:29:45.331Z,75.74
2017-10-04T08:30:55.373Z,75.65
2017-10-04T08:32:05.705Z,74.82
2017-10-04T08:33:16.051Z,74.47
2017-10-04T08:34:26.082Z,74.57
2017-10-04T08:35:36.465Z,73.83
2017-10-04T08:36:46.807Z,74.12
2017-10-04T08:37:57.141Z,73.38
2017-10-04T08:39:07.540Z,73.8
2017-10-04T08:40:17.884Z,73.71
2017-10-04T08:41:27.944Z,73.71
2017-10-04T08:42:37.960Z,74.38
2017-10-04T08:43:47.988Z,74
2017-10-04T08:44:58.332Z,74.29
2017-10-04T08:46:08.367Z,74.04
2017-10-04T08:47:18.465Z,73.74
2017-10-04T08:48:28.514Z,73.46
2017-10-04T08:49:38.854Z,73.97
2017-10-04T08:50:49.205Z,73.88
2017-10-04T08:51:59.220Z,73.68
2017-10-04T08:53:09.607Z,74.46
2017-10-04T08:54:19.639Z,74.46
2017-10-04T08:55:29.985Z,75.13
2017-10-04T08:56:40.345Z,75.13
2017-10-04T08:57:50.683Z,75.1
2017-10-04T08:59:01.100Z,75.2
2017-10-04T09:00:11.663Z,75.1
2017-10-04T09:01:22.017Z,75.39
2017-10-04T09:02:34.080Z,75.29
2017-10-04T09:03:44.118Z,74.9
2017-10-04T09:04:54.519Z,75.13
2017-10-04T09:06:05.622Z,75.04
2017-10-04T09:07:15.658Z,74.85
2017-10-04T09:08:25.375Z,74.85
2017-10-04T09:09:35.760Z,75.33
2017-10-04T09:10:45.845Z,75.13
2017-10-04T09:11:56.199Z,75.13
2017-10-04T09:13:06.229Z,75.13
2017-10-04T09:14:17.316Z,75.13
2017-10-04T09:15:27.377Z,74.94
2017-10-04T09:16:37.835Z,75.23
2017-10-04T09:17:48.233Z,75.91
2017-10-04T09:18:58.601Z,75.58
2017-10-04T09:20:08.941Z,75.68
2017-10-04T09:21:19.000Z,75.97
2017-10-04T09:22:29.426Z,75.97
2017-10-04T09:23:39.814Z,75.87
2017-10-04T09:24:50.148Z,76.06
2017-10-04T09:26:00.511Z,76.06
2017-10-04T09:27:10.227Z,76.16
2017-10-04T09:28:20.624Z,76.26
2017-10-04T09:29:30.966Z,76.35
2017-10-04T09:30:40.984Z,76.42
2017-10-04T09:31:50.995Z,76.45
2017-10-04T09:33:01.349Z,76.06
2017-10-04T09:34:11.382Z,75.97
2017-10-04T09:35:21.735Z,75.97
2017-10-04T09:36:32.067Z,75.87
2017-10-04T09:37:42.425Z,75.78
2017-10-04T09:38:52.461Z,75.78
2017-10-04T09:40:02.807Z,75.78
2017-10-04T09:41:13.163Z,75.78
2017-10-04T09:42:23.511Z,75.48
2017-10-04T09:43:33.528Z,75.71
2017-10-04T09:44:43.539Z,75.81
2017-10-04T09:45:53.880Z,75.78
2017-10-04T09:47:03.913Z,75.97
2017-10-04T09:48:13.930Z,75.78
2017-10-04T09:49:23.977Z,76.45
2017-10-04T09:50:34.344Z,76.32
2017-10-04T09:51:44.686Z,76.61
2017-10-04T09:52:54.707Z,76.42
2017-10-04T09:54:05.051Z,76.03
2017-10-04T09:55:15.405Z,76.55
2017-10-04T09:56:25.751Z,75.87
2017-10-04T09:57:35.518Z,75.78
2017-10-04T09:58:45.546Z,75.97
2017-10-04T09:59:55.886Z,75.97
2017-10-04T10:01:05.915Z,75.58
2017-10-04T10:02:16.251Z,75.78
2017-10-04T10:03:26.269Z,75.87
2017-10-04T10:04:36.608Z,75.48
2017-10-04T10:05:46.641Z,75.87
2017-10-04T10:06:56.983Z,75.68
2017-10-04T10:08:07.330Z,75.87
2017-10-04T10:09:17.107Z,75.71
2017-10-04T10:10:27.368Z,75.81
2017-10-04T10:11:37.729Z,75.33
2017-10-04T10:12:48.821Z,75.23
2017-10-04T10:13:59.167Z,76.01
2017-10-04T10:15:09.396Z,76.01
2017-10-04T10:16:19.737Z,76.01
2017-10-04T10:17:30.514Z,76.42
2017-10-04T10:18:41.654Z,76.42
2017-10-04T10:19:51.996Z,76.26
2017-10-04T10:21:02.338Z,75.78
2017-10-04T10:22:12.684Z,75.97
2017-10-04T10:23:22.708Z,75.58
2017-10-04T10:24:33.057Z,75.23
2017-10-04T10:25:43.106Z,75.23
2017-10-04T10:26:53.177Z,75.23
2017-10-04T10:28:03.529Z,75.37
2017-10-04T10:29:13.563Z,74.69
2017-10-04T10:30:23.913Z,74.79
2017-10-04T10:31:34.246Z,75.07
2017-10-04T10:32:44.591Z,74.59
2017-10-04T10:33:54.929Z,74.73
2017-10-04T10:35:05.264Z,74.82
2017-10-04T10:36:15.592Z,75.21
2017-10-04T10:37:25.318Z,74.63
2017-10-04T10:38:35.730Z,74.76
2017-10-04T10:39:46.097Z,75.05
2017-10-04T10:40:56.453Z,74.86
2017-10-04T10:42:06.491Z,75.34
2017-10-04T10:43:16.838Z,74.66
2017-10-04T10:44:27.174Z,73.99
2017-10-04T10:45:37.248Z,74.12
2017-10-04T10:46:47.604Z,74.12
2017-10-04T10:47:57.625Z,74.9
2017-10-04T10:49:08.142Z,74.9
2017-10-04T10:50:18.530Z,74.51
2017-10-04T10:51:28.880Z,74.12
2017-10-04T10:52:39.227Z,75.24
2017-10-04T10:53:49.593Z,75.05
2017-10-04T10:54:59.963Z,75.34
2017-10-04T10:56:10.333Z,75.15
2017-10-04T10:57:20.691Z,74.8
2017-10-04T10:58:31.357Z,74.22
2017-10-04T10:59:41.418Z,74.16
2017-10-04T11:00:51.499Z,73.77
2017-10-04T11:03:26.881Z,73.96
2017-10-04T11:04:36.987Z,73.9
2017-10-04T11:05:47.658Z,74.39
2017-10-04T11:06:58.642Z,74.29
2017-10-04T11:08:22.795Z,75.23
2017-10-04T11:09:33.147Z,76.15
2017-10-04T11:10:43.526Z,76.99
2017-10-04T11:11:53.546Z,76.31
2017-10-04T11:13:03.938Z,76.51
2017-10-04T11:14:13.980Z,76.41
2017-10-04T11:15:24.332Z,76.12
2017-10-04T11:16:34.046Z,75.24
2017-10-04T11:17:44.381Z,75.48
2017-10-04T11:18:54.778Z,74.9
2017-10-04T11:20:05.143Z,74.84
2017-10-04T11:21:14.855Z,74.26
2017-10-04T11:22:25.226Z,74.54
2017-10-04T11:23:35.659Z,75.42
2017-10-04T11:24:46.024Z,74.93
2017-10-04T11:25:56.059Z,74.64
2017-10-04T11:27:05.773Z,74.45
2017-10-04T11:28:16.115Z,73.71
2017-10-04T11:29:26.444Z,74.62
2017-10-04T11:30:36.524Z,74.19
2017-10-04T11:31:46.550Z,74.97
2017-10-04T11:32:57.142Z,74.87
2017-10-04T11:34:07.487Z,75.32
2017-10-04T11:35:17.821Z,74.93
2017-10-04T11:36:27.538Z,74.84
2017-10-04T11:37:37.900Z,74.1
2017-10-04T11:38:48.256Z,74.39
2017-10-04T11:39:58.613Z,74.29
2017-10-04T11:41:08.642Z,74.68
2017-10-04T11:42:19.073Z,75.07
2017-10-04T11:43:29.444Z,76.1
2017-10-04T11:44:39.787Z,76.29
2017-10-04T11:45:50.147Z,76.15
2017-10-04T11:47:00.509Z,75.96
2017-10-04T11:48:10.898Z,76.83
2017-10-04T11:49:20.963Z,76.99
2017-10-04T11:50:31.306Z,77.05
2017-10-04T11:51:41.701Z,76.66
2017-10-04T11:52:52.048Z,75.92
2017-10-04T11:54:02.069Z,75.24
2017-10-04T11:55:12.104Z,74.9
2017-10-04T11:56:22.453Z,74.6
2017-10-04T11:57:32.855Z,74.99
2017-10-04T11:58:43.186Z,74.26
2017-10-04T11:59:53.206Z,73.96
2017-10-04T12:01:03.572Z,74.45
2017-10-04T12:02:13.915Z,74.45
2017-10-04T12:03:23.949Z,74.35
2017-10-04T12:04:34.276Z,74.35
2017-10-04T12:05:44.690Z,74.45
2017-10-04T12:06:55.045Z,74.35
2017-10-04T12:08:05.403Z,74.35
2017-10-04T12:09:15.439Z,74.45
2017-10-04T12:10:25.818Z,74.26
2017-10-04T12:11:36.222Z,74.26
2017-10-04T12:12:46.575Z,74.26
2017-10-04T12:13:57.387Z,74.84
2017-10-04T12:15:07.741Z,74.74
2017-10-04T12:16:17.785Z,74.93
2017-10-04T12:17:28.187Z,74.93
2017-10-04T12:18:38.541Z,74.64
2017-10-04T12:19:48.895Z,74.64
2017-10-04T12:20:59.242Z,74.93
2017-10-04T12:22:24.244Z,75.32
2017-10-04T12:23:34.274Z,75.13
2017-10-04T12:24:44.653Z,75.42
2017-10-04T12:25:55.038Z,75.19
2017-10-04T12:27:04.746Z,75.09
2017-10-04T12:28:15.134Z,75.28
2017-10-04T12:29:25.484Z,76.02
2017-10-04T12:30:35.849Z,75.63
2017-10-04T12:31:46.218Z,75.44
2017-10-04T12:32:56.258Z,75.24
2017-10-04T12:34:06.316Z,74.86
2017-10-04T12:35:16.777Z,75.05
2017-10-04T12:36:27.149Z,75.34
2017-10-04T12:37:36.875Z,75.34
2017-10-04T12:38:46.916Z,75.44
2017-10-04T12:39:57.325Z,75.28
2017-10-04T12:41:07.692Z,75.38
2017-10-04T12:42:18.054Z,75.24
2017-10-04T12:43:28.422Z,75.15
2017-10-04T12:44:38.780Z,75.15
2017-10-04T12:45:48.887Z,75.24
2017-10-04T12:46:59.237Z,75.44
2017-10-04T12:48:09.575Z,75.24
2017-10-04T12:49:19.802Z,75.05
2017-10-04T12:50:31.935Z,75.34
2017-10-04T12:51:42.035Z,75.34
2017-10-04T12:52:52.439Z,75.24
2017-10-04T12:54:02.796Z,75.34
2017-10-04T12:55:13.152Z,75.34
2017-10-04T12:56:23.521Z,75.24
2017-10-04T12:57:33.891Z,75.34
2017-10-04T12:58:44.240Z,75.44
2017-10-04T12:59:54.604Z,75.24
2017-10-04T13:01:04.335Z,74.96
2017-10-04T13:02:14.710Z,75.05
2017-10-04T13:03:25.042Z,74.57
2017-10-04T13:04:35.403Z,74.7
2017-10-04T13:05:45.442Z,74.57
2017-10-04T13:06:55.812Z,74.6
2017-10-04T13:08:06.165Z,74.12
2017-10-04T13:09:16.519Z,74.54
2017-10-04T13:10:26.869Z,74.45
2017-10-04T13:11:36.903Z,73.77
2017-10-04T13:12:47.233Z,73.86
2017-10-04T13:13:57.576Z,74.45
2017-10-04T13:15:07.668Z,74.54
2017-10-04T13:16:18.032Z,74.74
2017-10-04T13:17:28.087Z,74.64
2017-10-04T13:18:38.106Z,74.84
2017-10-04T13:19:48.159Z,75.23
2017-10-04T13:20:58.546Z,74.93
2017-10-04T13:22:08.883Z,75.23
2017-10-04T13:23:19.233Z,75.03
2017-10-04T13:24:29.580Z,75.42
2017-10-04T13:25:39.609Z,75.23
2017-10-04T13:26:49.954Z,75.38
2017-10-04T13:28:00.301Z,76.35
2017-10-04T13:29:10.343Z,76.06
2017-10-04T13:30:20.741Z,75.96
2017-10-04T13:31:31.078Z,75.77
2017-10-04T13:32:41.434Z,75.96
2017-10-04T13:33:51.786Z,76.06
2017-10-04T13:35:01.862Z,76.06
2017-10-04T13:36:12.215Z,76.06
2017-10-04T13:37:22.568Z,76.15
2017-10-04T13:38:32.280Z,75.96
2017-10-04T13:39:42.310Z,76.41
2017-10-04T13:40:52.650Z,75.92
2017-10-04T13:42:03.006Z,76.41
2017-10-04T13:43:13.354Z,76.6
2017-10-04T13:44:23.066Z,76.66
2017-10-04T13:45:33.417Z,76.66
2017-10-04T13:46:43.439Z,76.66
2017-10-04T13:47:53.849Z,76.37
2017-10-04T13:49:03.889Z,76.18
2017-10-04T13:50:14.224Z,75.98
2017-10-04T13:51:24.588Z,76.12
2017-10-04T13:52:34.618Z,75.92
2017-10-04T13:53:44.980Z,76.02
2017-10-04T13:54:55.336Z,75.05
2017-10-04T13:56:05.669Z,75.34
2017-10-04T13:57:15.992Z,75.34
2017-10-04T13:58:25.697Z,75.34
2017-10-04T13:59:36.058Z,75.38
2017-10-04T14:00:45.773Z,75.09
2017-10-04T14:01:55.793Z,75.09
2017-10-04T14:03:05.829Z,75.19
2017-10-04T14:04:16.164Z,75.38
2017-10-04T14:05:26.202Z,75.57
2017-10-04T14:06:36.544Z,74.99
2017-10-04T14:07:46.570Z,75.38
2017-10-04T14:08:56.933Z,75.09
2017-10-04T14:10:07.291Z,75.19
2017-10-04T14:11:17.648Z,75.48
2017-10-04T14:12:28.009Z,75.28
2017-10-04T14:13:38.378Z,74.9
2017-10-04T14:14:48.823Z,74.26
2017-10-04T14:15:59.184Z,74.45
2017-10-04T14:17:09.221Z,74.26
2017-10-04T14:18:19.586Z,74.16
2017-10-04T14:19:29.938Z,74.26
2017-10-04T14:20:40.351Z,74.64
2017-10-04T14:21:50.717Z,75.23
2017-10-04T14:23:01.070Z,74.99
2017-10-04T14:24:11.088Z,75.96
2017-10-04T14:25:21.632Z,76.21
2017-10-04T14:26:32.038Z,76.56
2017-10-04T14:27:42.395Z,77.14
2017-10-04T14:28:52.749Z,77.5
2017-10-04T14:30:03.112Z,77.78
2017-10-04T14:31:13.454Z,77.75
2017-10-04T14:32:23.564Z,77.75
2017-10-04T14:33:33.925Z,77.61
2017-10-04T14:34:43.967Z,77.42
2017-10-04T14:35:54.002Z,77.8
2017-10-04T14:37:04.360Z,77.32
2017-10-04T14:38:14.705Z,77.22
2017-10-04T14:39:24.724Z,77.61
2017-10-04T14:40:35.081Z,77.71
2017-10-04T14:41:45.417Z,77.48
2017-10-04T14:42:55.443Z,76.84
2017-10-04T14:44:05.518Z,76.93
2017-10-04T14:45:15.553Z,76.7
2017-10-04T14:46:25.580Z,76.7
2017-10-04T14:47:35.616Z,77.09
2017-10-04T14:48:45.658Z,77
2017-10-04T14:49:55.413Z,76.42
2017-10-04T14:51:05.757Z,76.42
2017-10-04T14:52:15.804Z,76.55
2017-10-04T14:53:26.157Z,76.64
2017-10-04T14:54:36.217Z,76.45
2017-10-04T14:55:45.978Z,76.35
2017-10-04T14:56:56.316Z,76.84
2017-10-04T14:58:06.656Z,76.61
2017-10-04T14:59:17.019Z,76.9
2017-10-04T15:00:27.391Z,76.9
2017-10-04T15:01:37.766Z,76.7
2017-10-04T15:02:48.143Z,76.9
2017-10-04T15:03:58.486Z,77.28
2017-10-04T15:05:08.532Z,77.73
2017-10-04T15:06:18.263Z,77.63
2017-10-04T15:07:28.640Z,77.44
2017-10-04T15:08:38.995Z,77.3
2017-10-04T15:09:49.350Z,77.34
2017-10-04T15:10:59.739Z,77.11
2017-10-04T15:12:10.104Z,77.69
2017-10-04T15:13:20.516Z,77.69
2017-10-04T15:14:30.871Z,77.69
2017-10-04T15:15:41.235Z,78.27
2017-10-04T15:16:51.592Z,78.13
2017-10-04T15:18:01.957Z,78.13
2017-10-04T15:19:12.035Z,78.13
2017-10-04T15:20:22.424Z,78.13
2017-10-04T15:21:32.793Z,78.19
2017-10-04T15:22:42.829Z,78
2017-10-04T15:23:52.857Z,77.9
2017-10-04T15:25:02.929Z,77.9
2017-10-04T15:26:13.318Z,78
2017-10-04T15:27:23.688Z,77.76
2017-10-04T15:28:34.041Z,77.76
2017-10-04T15:29:44.412Z,77.86
2017-10-04T15:30:54.803Z,77.86
2017-10-04T15:32:05.171Z,77.76
2017-10-04T15:33:15.516Z,77.67
2017-10-04T15:34:25.863Z,77.86
2017-10-04T15:35:35.916Z,77.67
2017-10-04T15:36:46.317Z,77.83
2017-10-04T15:37:56.663Z,77.92
2017-10-04T15:39:07.024Z,77.73